Time;durP1;ratioP1;P1;durP2;ratioP2;P2;SDS_P1;SDS_P2;PMS_P1;PMS_P2;Temp;Humidity;BMP_temperature;BMP_pressure;BME280_temperature;BME280_humidity;BME280_pressure;Samples;Min_cycle;Max_cycle;Signal;HPM_P1;HPM_P2
2023/09/11 00:01:14;;;;;;;27.95;19.48;;;19.30;99.90;;;;;;5046607;28;20040;-64
2023/09/11 00:03:39;;;;;;;30.08;19.08;;;19.20;99.90;;;;;;5041685;28;20041;-64
2023/09/11 00:06:05;;;;;;;28.10;19.45;;;19.20;99.90;;;;;;5036779;28;20183;-65
2023/09/11 00:08:31;;;;;;;25.95;18.63;;;19.20;99.90;;;;;;5035781;28;20037;-67
2023/09/11 00:10:58;;;;;;;31.02;20.52;;;19.20;99.90;;;;;;5045337;28;20109;-64
2023/09/11 00:13:24;;;;;;;33.97;22.20;;;19.20;99.90;;;;;;5030229;28;20080;-65
2023/09/11 00:15:49;;;;;;;30.95;20.95;;;19.20;99.90;;;;;;5037282;28;20441;-64
2023/09/11 00:18:15;;;;;;;33.15;21.50;;;19.20;99.90;;;;;;5043800;28;20362;-64
2023/09/11 00:20:40;;;;;;;31.02;20.67;;;19.20;99.90;;;;;;5040069;28;20465;-65
2023/09/11 00:23:08;;;;;;;28.65;20.10;;;19.10;99.90;;;;;;5040467;28;20037;-64
2023/09/11 00:25:34;;;;;;;28.52;21.08;;;19.10;99.90;;;;;;5031086;28;20046;-65
2023/09/11 00:28:00;;;;;;;29.60;20.63;;;19.10;99.90;;;;;;5047166;28;20128;-65
2023/09/11 00:30:25;;;;;;;35.13;21.08;;;19.10;99.90;;;;;;5027966;28;20045;-64
2023/09/11 00:32:51;;;;;;;34.80;21.00;;;19.10;99.90;;;;;;5029823;28;20041;-65
2023/09/11 00:35:16;;;;;;;32.03;21.02;;;19.10;99.90;;;;;;5029638;28;20300;-64
2023/09/11 00:37:42;;;;;;;33.08;21.35;;;19.00;99.90;;;;;;5046928;28;20556;-66
2023/09/11 00:40:08;;;;;;;28.95;19.95;;;19.10;99.90;;;;;;5043710;28;20060;-64
2023/09/11 00:42:33;;;;;;;29.05;20.45;;;19.10;99.90;;;;;;5030291;28;20049;-64
2023/09/11 00:44:59;;;;;;;32.47;21.20;;;19.00;99.90;;;;;;5029773;28;20052;-64
2023/09/11 00:47:25;;;;;;;36.15;20.63;;;19.00;99.90;;;;;;5033919;28;20160;-64
2023/09/11 00:49:54;;;;;;;30.70;20.88;;;18.90;99.90;;;;;;5043965;28;20052;-64
2023/09/11 00:52:20;;;;;;;32.00;20.17;;;18.90;99.90;;;;;;5040925;28;20107;-65
2023/09/11 00:54:46;;;;;;;36.58;21.25;;;18.90;99.90;;;;;;5031951;28;20373;-64
2023/09/11 00:57:12;;;;;;;36.08;22.48;;;18.90;99.90;;;;;;5040644;28;20041;-64
2023/09/11 00:59:37;;;;;;;28.73;19.92;;;18.90;99.90;;;;;;5037313;28;20619;-65
2023/09/11 01:02:03;;;;;;;32.05;21.98;;;18.80;99.90;;;;;;5048515;28;20554;-65
2023/09/11 01:04:29;;;;;;;32.75;21.00;;;18.80;99.90;;;;;;5045885;28;20135;-64
2023/09/11 01:06:55;;;;;;;33.80;20.90;;;18.80;99.90;;;;;;5040892;28;20076;-64
2023/09/11 01:09:20;;;;;;;34.88;22.02;;;18.80;99.90;;;;;;5043402;28;20055;-64
2023/09/11 01:11:46;;;;;;;31.02;22.45;;;18.80;99.90;;;;;;5047987;28;20384;-65
2023/09/11 01:14:12;;;;;;;30.35;21.50;;;18.80;99.90;;;;;;5045603;28;20076;-65
2023/09/11 01:17:10;;;;;;;36.85;21.88;;;18.80;99.90;;;;;;5033217;28;20033;-64
2023/09/11 01:20:08;;;;;;;33.78;19.95;;;18.70;99.90;;;;;;5045068;28;20068;-64
2023/09/11 01:22:43;;;;;;;30.48;21.55;;;18.70;99.90;;;;;;5028570;28;20060;-64
2023/09/11 01:25:57;;;;;;;35.60;22.60;;;18.60;99.90;;;;;;5042459;28;20090;-64
2023/09/11 01:29:16;;;;;;;32.90;20.95;;;18.60;99.90;;;;;;5008161;28;20076;-64
2023/09/11 01:31:44;;;;;;;29.67;21.80;;;18.50;99.90;;;;;;4952810;28;20600;-64
2023/09/11 01:34:10;;;;;;;32.80;22.20;;;18.50;99.90;;;;;;5024005;28;20045;-64
2023/09/11 01:36:35;;;;;;;36.28;22.02;;;18.50;99.90;;;;;;5044184;28;20044;-64
2023/09/11 01:39:01;;;;;;;32.65;21.13;;;18.50;99.90;;;;;;5029353;28;20120;-65
2023/09/11 01:41:33;;;;;;;31.15;22.00;;;18.50;99.90;;;;;;5037573;28;20056;-65
2023/09/11 01:44:04;;;;;;;32.13;21.20;;;18.50;99.90;;;;;;5031998;28;20453;-64
2023/09/11 01:46:31;;;;;;;31.77;22.15;;;18.50;99.90;;;;;;5042048;28;20041;-64
2023/09/11 01:48:57;;;;;;;33.55;21.55;;;18.50;99.90;;;;;;5030038;28;20370;-64
2023/09/11 01:51:24;;;;;;;30.70;21.13;;;18.50;99.90;;;;;;5032841;28;20397;-64
2023/09/11 01:53:50;;;;;;;30.65;21.60;;;18.50;99.90;;;;;;5027895;28;20041;-64
2023/09/11 01:56:16;;;;;;;35.03;21.38;;;18.50;99.90;;;;;;5037774;28;20061;-65
2023/09/11 01:58:43;;;;;;;29.02;20.42;;;18.50;99.90;;;;;;5045161;28;20065;-64
2023/09/11 02:01:09;;;;;;;33.70;21.27;;;18.50;99.90;;;;;;5025579;28;20061;-65
2023/09/11 02:03:34;;;;;;;33.15;20.45;;;18.50;99.90;;;;;;5044129;28;20053;-64
2023/09/11 02:06:00;;;;;;;29.70;21.38;;;18.50;99.90;;;;;;5027488;28;20449;-65
2023/09/11 02:08:26;;;;;;;32.78;20.77;;;18.50;99.90;;;;;;5039642;28;20040;-64
2023/09/11 02:10:53;;;;;;;31.02;21.55;;;18.50;99.90;;;;;;5044464;28;20048;-64
2023/09/11 02:13:19;;;;;;;29.42;20.35;;;18.50;99.90;;;;;;5041099;28;20048;-64
2023/09/11 02:15:45;;;;;;;31.52;22.05;;;18.50;99.90;;;;;;5031964;28;20025;-64
2023/09/11 02:18:10;;;;;;;30.92;20.90;;;18.50;99.90;;;;;;5027750;28;20107;-64
2023/09/11 02:20:36;;;;;;;35.60;21.75;;;18.50;99.90;;;;;;5042625;28;20049;-64
2023/09/11 02:23:02;;;;;;;34.80;20.85;;;18.50;99.90;;;;;;5032022;28;20047;-64
2023/09/11 02:25:28;;;;;;;30.58;20.88;;;18.50;99.90;;;;;;5039150;28;20047;-64
2023/09/11 02:27:53;;;;;;;30.58;21.77;;;18.50;99.90;;;;;;5036773;28;20064;-64
2023/09/11 02:30:19;;;;;;;30.98;20.27;;;18.50;99.90;;;;;;5029095;28;20099;-64
2023/09/11 02:32:45;;;;;;;30.85;21.50;;;18.50;99.90;;;;;;5026627;28;20169;-65
2023/09/11 02:35:10;;;;;;;36.45;20.85;;;18.50;99.90;;;;;;5033043;28;20106;-64
2023/09/11 02:37:36;;;;;;;27.40;20.17;;;18.50;99.90;;;;;;5046382;28;20146;-63
2023/09/11 02:40:02;;;;;;;32.72;20.52;;;18.40;99.90;;;;;;5038352;28;20128;-64
2023/09/11 02:42:28;;;;;;;34.70;20.67;;;18.40;99.90;;;;;;5026849;28;20072;-64
2023/09/11 02:44:53;;;;;;;30.70;20.85;;;18.40;99.90;;;;;;5025470;28;20036;-65
2023/09/11 02:47:19;;;;;;;30.27;20.83;;;18.40;99.90;;;;;;5039313;28;20053;-64
2023/09/11 02:49:44;;;;;;;32.67;21.30;;;18.40;99.90;;;;;;5043705;28;20141;-64
2023/09/11 02:52:10;;;;;;;33.55;20.17;;;18.40;99.90;;;;;;5035596;28;20044;-64
2023/09/11 02:54:35;;;;;;;37.13;21.48;;;18.40;99.90;;;;;;5033263;28;20032;-64
2023/09/11 02:57:01;;;;;;;33.58;20.60;;;18.40;99.90;;;;;;5030754;28;20045;-65
2023/09/11 02:59:27;;;;;;;32.10;20.58;;;18.40;99.90;;;;;;5029187;28;20041;-65
2023/09/11 03:01:52;;;;;;;39.95;21.73;;;18.30;99.90;;;;;;5043625;28;20465;-65
2023/09/11 03:04:18;;;;;;;35.15;21.70;;;18.30;99.90;;;;;;5048312;28;20041;-64
2023/09/11 03:06:43;;;;;;;28.05;19.55;;;18.30;99.90;;;;;;5032488;28;20037;-64
2023/09/11 03:09:09;;;;;;;28.00;19.80;;;18.30;99.90;;;;;;5026893;28;20041;-64
2023/09/11 03:11:34;;;;;;;30.02;19.98;;;18.20;99.90;;;;;;5028474;28;20338;-64
2023/09/11 03:14:00;;;;;;;31.40;20.08;;;18.20;99.90;;;;;;5034357;28;20140;-64
2023/09/11 03:16:25;;;;;;;31.52;20.60;;;18.20;99.90;;;;;;5034529;28;20420;-64
2023/09/11 03:18:51;;;;;;;31.50;20.88;;;18.10;99.90;;;;;;5045153;28;20132;-64
2023/09/11 03:21:17;;;;;;;33.50;20.92;;;18.10;99.90;;;;;;5045970;28;20036;-64
2023/09/11 03:23:42;;;;;;;34.13;20.83;;;18.10;99.90;;;;;;5046197;28;20114;-64
2023/09/11 03:26:15;;;;;;;31.58;20.63;;;18.00;99.90;;;;;;5047334;28;20098;-65
2023/09/11 03:28:45;;;;;;;29.88;19.33;;;18.00;99.90;;;;;;5042151;28;20045;-64
2023/09/11 03:31:10;;;;;;;32.30;20.93;;;18.00;99.90;;;;;;5039019;28;20041;-64
2023/09/11 03:33:36;;;;;;;36.22;21.77;;;17.90;99.90;;;;;;5043784;28;20382;-65
2023/09/11 03:36:02;;;;;;;38.30;21.80;;;17.90;99.90;;;;;;5032840;28;20137;-63
2023/09/11 03:38:27;;;;;;;33.83;22.15;;;17.90;99.90;;;;;;5033629;28;20091;-68
2023/09/11 03:40:53;;;;;;;35.95;22.98;;;17.80;99.90;;;;;;5028351;28;20057;-64
2023/09/11 03:43:18;;;;;;;35.17;22.73;;;17.80;99.90;;;;;;5030965;28;20059;-64
2023/09/11 03:45:44;;;;;;;33.40;21.98;;;17.80;99.90;;;;;;5029978;28;20056;-65
2023/09/11 03:48:10;;;;;;;34.78;22.60;;;17.70;99.90;;;;;;5032881;28;20044;-64
2023/09/11 03:50:36;;;;;;;36.45;22.45;;;17.70;99.90;;;;;;5036379;28;20051;-65
2023/09/11 03:53:01;;;;;;;32.35;21.67;;;17.70;99.90;;;;;;5038955;28;20063;-64
2023/09/11 03:55:27;;;;;;;35.88;22.35;;;17.70;99.90;;;;;;5040305;28;20064;-64
2023/09/11 03:57:53;;;;;;;33.30;21.77;;;17.70;99.90;;;;;;5028315;28;20056;-64
2023/09/11 04:00:18;;;;;;;33.25;23.77;;;17.70;99.90;;;;;;5034314;28;20033;-64
2023/09/11 04:02:44;;;;;;;38.00;23.63;;;17.70;99.90;;;;;;5034357;28;20104;-64
2023/09/11 04:05:09;;;;;;;36.40;23.83;;;17.60;99.90;;;;;;5040730;28;20147;-64
2023/09/11 04:07:35;;;;;;;35.70;23.42;;;17.60;99.90;;;;;;5043282;28;20080;-64
2023/09/11 04:10:00;;;;;;;38.55;23.30;;;17.60;99.90;;;;;;5040049;28;20049;-63
2023/09/11 04:12:26;;;;;;;38.00;24.55;;;17.60;99.90;;;;;;5030671;28;20041;-64
2023/09/11 04:14:52;;;;;;;35.85;24.90;;;17.60;99.90;;;;;;5019435;28;20542;-64
2023/09/11 04:17:17;;;;;;;33.13;23.42;;;17.60;99.90;;;;;;5033331;28;20048;-64
2023/09/11 04:19:43;;;;;;;34.95;24.38;;;17.60;99.90;;;;;;5029608;28;20044;-64
2023/09/11 04:22:09;;;;;;;37.80;24.92;;;17.60;99.90;;;;;;5038396;28;20135;-64
2023/09/11 04:24:35;;;;;;;36.90;24.25;;;17.50;99.90;;;;;;5040907;28;20049;-64
2023/09/11 04:27:00;;;;;;;41.55;26.05;;;17.50;99.90;;;;;;5047613;28;20458;-64
2023/09/11 04:29:28;;;;;;;39.97;24.98;;;17.50;99.90;;;;;;5035139;28;20859;-63
2023/09/11 04:31:53;;;;;;;42.92;25.70;;;17.50;99.90;;;;;;5042317;28;20307;-65
2023/09/11 04:34:19;;;;;;;39.53;24.92;;;17.50;99.90;;;;;;5036490;28;20051;-64
2023/09/11 04:36:44;;;;;;;44.85;25.27;;;17.50;99.90;;;;;;5038053;28;20385;-64
2023/09/11 04:39:12;;;;;;;38.00;25.50;;;17.50;99.90;;;;;;5034836;28;20331;-64
2023/09/11 04:41:37;;;;;;;41.67;26.42;;;17.50;99.90;;;;;;5036506;28;20080;-63
2023/09/11 04:44:03;;;;;;;37.70;24.90;;;17.50;99.90;;;;;;5033382;28;20434;-64
2023/09/11 04:46:28;;;;;;;40.67;24.83;;;17.50;99.90;;;;;;5029728;28;20139;-63
2023/09/11 04:48:55;;;;;;;42.67;26.83;;;17.50;99.90;;;;;;5033035;28;20064;-64
2023/09/11 04:51:21;;;;;;;38.97;25.80;;;17.50;99.90;;;;;;5039318;28;20045;-65
2023/09/11 04:53:46;;;;;;;35.78;25.40;;;17.50;99.90;;;;;;5039308;28;20090;-64
2023/09/11 04:56:12;;;;;;;42.00;24.55;;;17.50;99.90;;;;;;5038848;28;20116;-64
2023/09/11 04:58:37;;;;;;;36.65;25.50;;;17.50;99.90;;;;;;5029435;28;20048;-64
2023/09/11 05:01:03;;;;;;;40.95;24.63;;;17.50;99.90;;;;;;5044049;28;20388;-65
2023/09/11 05:03:28;;;;;;;39.65;24.73;;;17.40;99.90;;;;;;5046637;28;20060;-64
2023/09/11 05:05:54;;;;;;;36.65;23.63;;;17.50;99.90;;;;;;5044604;28;20053;-63
2023/09/11 05:08:20;;;;;;;33.80;25.05;;;17.50;99.90;;;;;;5041241;28;20049;-65
2023/09/11 05:10:45;;;;;;;39.47;24.55;;;17.50;99.90;;;;;;5047634;28;20387;-64
2023/09/11 05:13:11;;;;;;;36.38;25.50;;;17.50;99.90;;;;;;5043991;28;20078;-64
2023/09/11 05:15:37;;;;;;;39.13;25.52;;;17.50;99.90;;;;;;5040668;28;20128;-64
2023/09/11 05:18:03;;;;;;;40.20;26.15;;;17.50;99.90;;;;;;5038147;28;20120;-65
2023/09/11 05:20:30;;;;;;;43.17;25.60;;;17.60;99.90;;;;;;5047481;28;20090;-64
2023/09/11 05:22:56;;;;;;;40.17;25.83;;;17.60;99.90;;;;;;5044715;28;20362;-64
2023/09/11 05:25:22;;;;;;;40.25;25.55;;;17.60;99.90;;;;;;5039357;28;20174;-64
2023/09/11 05:27:48;;;;;;;39.58;25.45;;;17.60;99.90;;;;;;5027891;28;20059;-65
2023/09/11 05:30:13;;;;;;;36.78;24.77;;;17.60;99.90;;;;;;5043077;28;20041;-64
2023/09/11 05:32:39;;;;;;;44.58;25.80;;;17.60;99.90;;;;;;5045373;28;20362;-65
2023/09/11 05:35:06;;;;;;;40.83;24.90;;;17.60;99.90;;;;;;5045053;28;20144;-65
2023/09/11 05:37:31;;;;;;;39.28;25.55;;;17.60;99.90;;;;;;5045584;28;20094;-65
2023/09/11 05:39:58;;;;;;;40.85;23.52;;;17.70;99.90;;;;;;5041789;28;20036;-65
2023/09/11 05:42:24;;;;;;;42.03;26.05;;;17.70;99.90;;;;;;5043385;28;20049;-65
2023/09/11 05:44:50;;;;;;;40.55;24.80;;;17.70;99.90;;;;;;5039205;28;20109;-65
2023/09/11 05:47:16;;;;;;;37.10;24.67;;;17.80;99.90;;;;;;5042452;28;20110;-64
2023/09/11 05:49:41;;;;;;;40.03;25.00;;;17.80;99.90;;;;;;5048636;28;20043;-65
2023/09/11 05:52:07;;;;;;;42.22;25.60;;;17.90;99.90;;;;;;5038223;28;20136;-65
2023/09/11 05:54:36;;;;;;;34.97;24.33;;;17.90;99.90;;;;;;5045287;28;20053;-64
2023/09/11 05:57:02;;;;;;;37.22;23.90;;;17.90;99.90;;;;;;5049177;28;20106;-64
2023/09/11 05:59:28;;;;;;;39.00;24.63;;;18.00;99.90;;;;;;5040035;28;20041;-65
2023/09/11 06:01:54;;;;;;;37.58;23.33;;;18.00;99.90;;;;;;5044743;28;20082;-65
2023/09/11 06:04:19;;;;;;;35.67;23.60;;;18.10;99.90;;;;;;5046345;28;20107;-64
2023/09/11 06:06:45;;;;;;;40.85;24.73;;;18.20;99.90;;;;;;5046284;28;20048;-65
2023/09/11 06:09:11;;;;;;;37.00;23.73;;;18.20;99.90;;;;;;5046732;28;20043;-64
2023/09/11 06:11:37;;;;;;;35.97;23.27;;;18.30;99.90;;;;;;5041830;28;20041;-64
2023/09/11 06:14:05;;;;;;;38.92;23.50;;;18.40;99.90;;;;;;5038798;28;20032;-65
2023/09/11 06:16:31;;;;;;;35.15;22.95;;;18.40;99.90;;;;;;5037769;28;20094;-64
2023/09/11 06:19:00;;;;;;;39.00;24.73;;;18.50;99.90;;;;;;5033623;28;20049;-64
2023/09/11 06:21:26;;;;;;;38.33;23.63;;;18.60;99.90;;;;;;5045220;28;20040;-66
2023/09/11 06:23:52;;;;;;;32.10;22.00;;;18.70;99.90;;;;;;5044500;28;20536;-65
2023/09/11 06:26:17;;;;;;;38.35;22.45;;;18.80;99.90;;;;;;5043040;28;20127;-65
2023/09/11 06:28:43;;;;;;;39.28;23.90;;;18.80;99.90;;;;;;5046073;28;20393;-65
2023/09/11 06:31:09;;;;;;;38.25;22.60;;;19.00;99.90;;;;;;5038629;28;20032;-65
2023/09/11 06:33:35;;;;;;;34.22;22.30;;;19.10;99.90;;;;;;5045640;28;20160;-65
2023/09/11 06:36:01;;;;;;;31.73;21.05;;;19.30;99.90;;;;;;5025738;28;20119;-64
2023/09/11 06:38:27;;;;;;;34.03;20.35;;;19.40;99.90;;;;;;5037917;28;20124;-65
2023/09/11 06:40:52;;;;;;;33.58;21.40;;;19.70;99.90;;;;;;5042339;28;20596;-65
2023/09/11 06:43:18;;;;;;;32.20;20.67;;;19.80;99.90;;;;;;5042892;28;20045;-65
2023/09/11 06:45:43;;;;;;;35.63;20.10;;;20.10;99.90;;;;;;5042440;28;20048;-66
2023/09/11 06:48:12;;;;;;;29.77;19.02;;;20.20;99.90;;;;;;5042898;28;20033;-64
2023/09/11 06:50:41;;;;;;;29.95;17.80;;;20.40;99.90;;;;;;5042228;28;20028;-65
2023/09/11 06:53:10;;;;;;;29.88;19.08;;;20.60;99.90;;;;;;5042545;28;20028;-65
2023/09/11 06:55:35;;;;;;;27.48;17.95;;;20.90;99.90;;;;;;5046241;28;20033;-65
2023/09/11 06:58:02;;;;;;;33.97;17.67;;;21.10;99.90;;;;;;5044685;28;20488;-65
2023/09/11 07:00:27;;;;;;;29.20;18.02;;;21.20;99.90;;;;;;5037564;28;20037;-64
2023/09/11 07:02:54;;;;;;;27.15;15.63;;;21.40;99.90;;;;;;5037093;28;20503;-65
2023/09/11 07:05:20;;;;;;;26.48;16.40;;;21.60;99.90;;;;;;5041932;28;20072;-66
2023/09/11 07:07:46;;;;;;;24.75;15.50;;;21.90;99.90;;;;;;5040257;28;20047;-65
2023/09/11 07:10:15;;;;;;;24.02;14.55;;;22.00;99.90;;;;;;5042867;28;20040;-65
2023/09/11 07:12:41;;;;;;;23.63;15.10;;;22.30;99.90;;;;;;5042458;28;20040;-65
2023/09/11 07:15:07;;;;;;;25.48;15.10;;;22.50;99.90;;;;;;5044317;28;20033;-65
2023/09/11 07:17:32;;;;;;;22.85;14.52;;;22.70;99.90;;;;;;5045613;28;20120;-65
2023/09/11 07:19:58;;;;;;;29.08;13.85;;;22.90;99.90;;;;;;5027567;28;20055;-66
2023/09/11 07:22:23;;;;;;;25.42;13.32;;;23.20;99.90;;;;;;5042106;28;20138;-65
2023/09/11 07:24:49;;;;;;;22.83;13.52;;;23.30;99.90;;;;;;5043031;28;20041;-65
2023/09/11 07:27:15;;;;;;;22.17;12.50;;;23.60;99.90;;;;;;5043673;28;20084;-65
2023/09/11 07:29:40;;;;;;;24.75;12.18;;;23.80;99.90;;;;;;5042667;28;20045;-65
2023/09/11 07:32:06;;;;;;;23.50;11.63;;;24.00;99.90;;;;;;5042540;28;20126;-66
2023/09/11 07:34:32;;;;;;;24.48;11.85;;;24.10;98.60;;;;;;5045108;28;20094;-65
2023/09/11 07:36:58;;;;;;;21.50;11.70;;;24.30;98.40;;;;;;5046882;28;20049;-65
2023/09/11 07:39:24;;;;;;;20.80;11.27;;;24.60;97.80;;;;;;5047833;28;20044;-65
2023/09/11 07:41:49;;;;;;;18.42;11.77;;;24.70;96.80;;;;;;5045763;28;20463;-66
2023/09/11 07:44:15;;;;;;;21.05;10.88;;;24.80;95.70;;;;;;5042897;28;20079;-67
2023/09/11 07:46:40;;;;;;;17.42;10.75;;;25.00;94.10;;;;;;5046265;28;20044;-66
2023/09/11 07:49:06;;;;;;;21.75;11.00;;;25.00;94.20;;;;;;5048284;28;20052;-65
2023/09/11 07:51:32;;;;;;;17.92;11.20;;;25.00;93.70;;;;;;5046720;28;20033;-66
2023/09/11 07:53:58;;;;;;;20.15;11.02;;;24.90;93.40;;;;;;5045530;28;20032;-65
2023/09/11 07:56:24;;;;;;;18.00;10.35;;;25.00;93.00;;;;;;5041894;28;20057;-66
2023/09/11 07:58:50;;;;;;;19.20;11.73;;;25.00;92.40;;;;;;5050145;28;20124;-67
2023/09/11 08:01:18;;;;;;;18.13;11.18;;;24.80;90.10;;;;;;5039625;28;20055;-66
2023/09/11 08:03:44;;;;;;;20.45;11.25;;;24.80;91.20;;;;;;5038321;28;20068;-67
2023/09/11 08:06:10;;;;;;;18.60;11.52;;;24.90;90.90;;;;;;5046960;28;20125;-65
2023/09/11 08:08:36;;;;;;;22.77;11.90;;;24.90;90.70;;;;;;5050041;28;20491;-66
2023/09/11 08:11:16;;;;;;;22.80;10.90;;;24.80;89.30;;;;;;5047479;28;20481;-66
2023/09/11 08:13:42;;;;;;;17.17;10.65;;;24.70;90.00;;;;;;5048343;28;20049;-66
2023/09/11 08:16:08;;;;;;;20.65;10.73;;;25.00;89.60;;;;;;5046504;28;20067;-66
2023/09/11 08:18:34;;;;;;;19.45;10.45;;;25.20;88.70;;;;;;5046807;28;20041;-65
2023/09/11 08:20:59;;;;;;;20.45;9.98;;;25.30;88.30;;;;;;5050392;28;20334;-67
2023/09/11 08:23:25;;;;;;;20.13;10.55;;;25.50;87.80;;;;;;5042006;28;20405;-66
2023/09/11 08:25:59;;;;;;;18.42;9.77;;;25.90;85.10;;;;;;5044047;28;20086;-66
2023/09/11 08:28:24;;;;;;;22.20;11.02;;;26.20;82.20;;;;;;5032663;28;20546;-66
2023/09/11 08:30:50;;;;;;;17.65;9.05;;;26.60;81.60;;;;;;5045606;28;20065;-65
2023/09/11 08:33:16;;;;;;;20.23;10.18;;;26.70;80.30;;;;;;5043131;28;20040;-65
2023/09/11 08:35:42;;;;;;;18.70;9.10;;;26.80;80.20;;;;;;5049581;28;20622;-66
2023/09/11 08:38:08;;;;;;;16.08;9.20;;;27.10;79.90;;;;;;5050529;28;20080;-67
2023/09/11 08:40:34;;;;;;;17.55;9.10;;;27.50;79.00;;;;;;5047969;28;20080;-66
2023/09/11 08:43:02;;;;;;;18.45;9.23;;;27.80;77.60;;;;;;5042508;28;20488;-66
2023/09/11 08:45:28;;;;;;;18.23;9.25;;;28.20;76.10;;;;;;5046084;28;20044;-66
2023/09/11 08:47:57;;;;;;;15.98;8.75;;;28.30;75.20;;;;;;5042470;28;20397;-67
2023/09/11 08:50:31;;;;;;;20.00;8.93;;;28.30;74.20;;;;;;5041734;28;20461;-66
2023/09/11 08:52:58;;;;;;;19.80;8.93;;;28.10;73.40;;;;;;5045693;28;20048;-66
2023/09/11 08:55:25;;;;;;;16.20;8.25;;;28.00;74.60;;;;;;5041448;28;20527;-66
2023/09/11 08:57:51;;;;;;;12.68;7.88;;;27.80;74.60;;;;;;5050354;28;20103;-65
2023/09/11 09:00:18;;;;;;;18.65;8.15;;;27.80;73.70;;;;;;5042092;28;20076;-66
2023/09/11 09:02:44;;;;;;;12.35;7.28;;;27.70;73.70;;;;;;5043499;28;20052;-65
2023/09/11 09:05:10;;;;;;;14.25;8.15;;;27.60;73.80;;;;;;5047549;28;20486;-65
2023/09/11 09:07:38;;;;;;;11.70;8.05;;;27.60;73.40;;;;;;5045083;28;20095;-66
2023/09/11 09:10:04;;;;;;;14.48;7.93;;;27.50;73.50;;;;;;5044533;28;20057;-65
2023/09/11 09:12:31;;;;;;;16.02;8.43;;;27.40;73.70;;;;;;5048100;28;20060;-66
2023/09/11 09:14:57;;;;;;;17.15;8.00;;;27.40;74.00;;;;;;5043559;28;20047;-66
2023/09/11 09:17:23;;;;;;;16.40;7.88;;;27.60;73.30;;;;;;5045836;28;20032;-65
2023/09/11 09:19:48;;;;;;;11.10;7.60;;;27.50;72.90;;;;;;5045549;28;20534;-65
2023/09/11 09:22:14;;;;;;;16.58;7.93;;;27.60;72.60;;;;;;5051771;28;20120;-66
2023/09/11 09:24:48;;;;;;;14.13;7.53;;;27.60;72.70;;;;;;5046895;28;20047;-66
2023/09/11 09:27:14;;;;;;;15.95;7.32;;;27.50;72.50;;;;;;5047582;28;20040;-68
2023/09/11 09:29:39;;;;;;;17.73;7.82;;;27.60;70.80;;;;;;5030179;28;20523;-66
2023/09/11 09:32:09;;;;;;;11.88;7.82;;;27.70;71.10;;;;;;5046331;28;20037;-65
2023/09/11 09:34:41;;;;;;;13.07;7.63;;;27.60;70.20;;;;;;5046049;28;20408;-66
2023/09/11 09:37:15;;;;;;;13.88;7.15;;;27.50;69.60;;;;;;5044970;28;20037;-66
2023/09/11 09:39:41;;;;;;;14.35;7.72;;;27.60;69.10;;;;;;5039201;28;20134;-66
2023/09/11 09:42:07;;;;;;;12.13;7.30;;;27.60;69.20;;;;;;5043257;28;20032;-67
2023/09/11 09:44:35;;;;;;;14.23;7.38;;;27.70;69.40;;;;;;5041274;28;20044;-67
2023/09/11 09:47:08;;;;;;;14.23;6.82;;;27.70;68.60;;;;;;5049402;28;20048;-66
2023/09/11 09:49:43;;;;;;;16.40;7.38;;;27.80;68.30;;;;;;5039025;28;20045;-66
2023/09/11 09:52:09;;;;;;;13.57;7.05;;;27.90;67.70;;;;;;5027420;28;20049;-66
2023/09/11 09:54:49;;;;;;;13.00;7.20;;;28.00;68.00;;;;;;5018704;28;20041;-66
2023/09/11 09:57:17;;;;;;;14.95;6.93;;;28.00;66.60;;;;;;5043687;28;20056;-66
2023/09/11 09:59:47;;;;;;;13.38;7.20;;;28.10;67.00;;;;;;5039690;28;20124;-66
2023/09/11 10:02:13;;;;;;;;;;;28.10;67.00;;;;;;5036776;28;20413;-65
2023/09/11 10:04:39;;;;;;;12.52;7.20;;;28.10;66.40;;;;;;5042828;28;19928;-66
2023/09/11 10:07:05;;;;;;;10.98;6.85;;;28.10;67.10;;;;;;5044354;28;20056;-65
2023/09/11 10:09:31;;;;;;;18.30;7.65;;;28.10;66.90;;;;;;5043722;28;20089;-65
2023/09/11 10:12:03;;;;;;;15.65;7.38;;;28.20;66.20;;;;;;5046851;28;20104;-66
2023/09/11 10:14:29;;;;;;;14.05;6.93;;;28.20;65.40;;;;;;5034040;28;20104;-65
2023/09/11 10:16:58;;;;;;;16.15;8.00;;;28.00;66.00;;;;;;5037721;28;20776;-65
2023/09/11 10:19:27;;;;;;;16.52;8.15;;;28.10;66.30;;;;;;5041481;28;20399;-65
2023/09/11 10:21:53;;;;;;;9.10;6.88;;;28.10;66.60;;;;;;5041454;28;20037;-65
2023/09/11 10:24:18;;;;;;;12.45;7.68;;;28.20;67.00;;;;;;5046068;28;20536;-65
2023/09/11 10:26:49;;;;;;;12.77;7.88;;;28.10;66.90;;;;;;5044243;28;20050;-66
2023/09/11 10:29:38;;;;;;;11.57;7.63;;;28.30;66.60;;;;;;5044504;28;20037;-66
2023/09/11 10:32:20;;;;;;;17.55;8.75;;;28.40;66.00;;;;;;5034967;28;20047;-65
2023/09/11 10:34:49;;;;;;;13.13;7.75;;;28.30;64.00;;;;;;5044372;28;20048;-66
2023/09/11 10:37:20;;;;;;;14.35;8.07;;;28.20;65.60;;;;;;5040471;28;20033;-65
2023/09/11 10:39:47;;;;;;;15.20;7.93;;;28.20;65.90;;;;;;5036683;28;20034;-65
2023/09/11 10:42:13;;;;;;;14.52;8.40;;;28.30;65.70;;;;;;5029622;28;20496;-66
2023/09/11 10:44:39;;;;;;;10.48;8.10;;;28.30;65.80;;;;;;5017634;28;20132;-65
2023/09/11 10:47:04;;;;;;;11.57;7.30;;;28.30;65.60;;;;;;5038164;28;20120;-65
2023/09/11 10:49:35;;;;;;;17.42;8.20;;;28.30;65.50;;;;;;5035980;28;20107;-66
2023/09/11 10:52:06;;;;;;;12.77;8.15;;;28.40;64.90;;;;;;5041522;28;20523;-65
2023/09/11 10:54:33;;;;;;;13.55;7.68;;;28.40;65.00;;;;;;5044354;28;20048;-65
2023/09/11 10:56:59;;;;;;;11.30;7.70;;;28.40;64.50;;;;;;5031151;28;20081;-68
2023/09/11 10:59:25;;;;;;;12.20;7.60;;;28.40;63.60;;;;;;5028392;28;20033;-65
2023/09/11 11:01:51;;;;;;;11.75;7.45;;;28.50;63.00;;;;;;5035920;28;20127;-66
2023/09/11 11:04:17;;;;;;;14.02;7.50;;;28.40;63.10;;;;;;5040056;28;20090;-65
2023/09/11 11:06:47;;;;;;;8.75;7.22;;;28.40;62.20;;;;;;5045160;28;20045;-66
2023/09/11 11:09:32;;;;;;;10.25;7.63;;;28.40;62.20;;;;;;5038737;28;20041;-66
2023/09/11 11:12:10;;;;;;;11.93;7.43;;;28.50;61.80;;;;;;5046907;28;20036;-65
2023/09/11 11:14:36;;;;;;;9.88;6.85;;;28.50;62.90;;;;;;5037800;28;20037;-66
2023/09/11 11:17:10;;;;;;;9.95;7.25;;;28.70;63.20;;;;;;5048480;28;20674;-66
2023/09/11 11:19:50;;;;;;;12.18;7.43;;;28.70;62.30;;;;;;5044015;28;20040;-65
2023/09/11 11:22:33;;;;;;;9.27;7.28;;;28.70;62.60;;;;;;5039287;28;20037;-65
2023/09/11 11:25:03;;;;;;;10.90;7.53;;;28.80;62.50;;;;;;5048353;28;20154;-65
2023/09/11 11:27:28;;;;;;;13.40;8.00;;;28.80;63.00;;;;;;5044720;28;20098;-65
2023/09/11 11:29:54;;;;;;;10.60;7.93;;;28.80;63.00;;;;;;5036654;28;20453;-64
2023/09/11 11:32:23;;;;;;;11.50;7.55;;;28.90;63.00;;;;;;5038598;28;20037;-65
2023/09/11 11:34:50;;;;;;;11.02;7.63;;;28.90;62.30;;;;;;5043205;28;20038;-65
2023/09/11 11:37:20;;;;;;;13.23;7.93;;;29.00;62.60;;;;;;5043063;28;20037;-65
2023/09/11 11:39:46;;;;;;;10.05;7.20;;;29.00;62.50;;;;;;5044995;28;20785;-66
2023/09/11 11:42:13;;;;;;;11.48;7.35;;;29.00;62.40;;;;;;5045298;28;20033;-65
2023/09/11 11:44:39;;;;;;;12.10;8.23;;;29.00;61.80;;;;;;5041626;28;20036;-65
2023/09/11 11:47:06;;;;;;;14.55;7.47;;;29.00;61.70;;;;;;5049863;28;20041;-66
2023/09/11 11:49:33;;;;;;;10.85;8.10;;;29.00;61.70;;;;;;5050796;28;20047;-66
2023/09/11 11:52:03;;;;;;;11.35;8.00;;;29.00;62.30;;;;;;5045253;28;20059;-65
2023/09/11 11:54:29;;;;;;;11.55;7.72;;;29.10;62.50;;;;;;5037609;28;20133;-65
2023/09/11 11:57:00;;;;;;;14.32;8.73;;;29.20;62.50;;;;;;5041257;28;20037;-65
2023/09/11 11:59:30;;;;;;;14.32;8.35;;;29.20;62.90;;;;;;5046943;28;20055;-65
2023/09/11 12:01:56;;;;;;;12.65;7.80;;;29.20;62.80;;;;;;5037051;28;20053;-65
2023/09/11 12:04:22;;;;;;;11.15;7.80;;;29.20;62.90;;;;;;5049223;28;20045;-65
2023/09/11 12:06:47;;;;;;;13.32;8.07;;;29.10;62.50;;;;;;5043893;28;20068;-65
2023/09/11 12:09:20;;;;;;;12.23;7.55;;;29.30;62.10;;;;;;5042806;28;20341;-65
2023/09/11 12:11:46;;;;;;;12.02;7.93;;;29.10;61.40;;;;;;5049669;28;20037;-66
2023/09/11 12:14:14;;;;;;;12.90;8.45;;;29.10;62.10;;;;;;5040082;28;20033;-66
2023/09/11 12:16:39;;;;;;;13.43;7.53;;;29.00;61.90;;;;;;5040221;28;20041;-67
2023/09/11 12:19:06;;;;;;;15.10;8.85;;;29.00;61.90;;;;;;5052181;28;20041;-64
2023/09/11 12:21:32;;;;;;;11.82;8.05;;;29.00;61.70;;;;;;5033749;28;20115;-64
2023/09/11 12:23:59;;;;;;;11.93;8.60;;;28.90;61.70;;;;;;5039022;28;20053;-66
2023/09/11 12:26:26;;;;;;;14.35;8.55;;;29.00;61.50;;;;;;5039415;28;20132;-64
2023/09/11 12:28:52;;;;;;;13.52;8.13;;;29.00;61.60;;;;;;5039945;28;20090;-65
2023/09/11 12:31:19;;;;;;;11.50;7.78;;;29.10;61.30;;;;;;5033839;28;20029;-65